Time;durP1;ratioP1;P1;durP2;ratioP2;P2;SDS_P1;SDS_P2;PMS_P1;PMS_P2;Temp;Humidity;BMP_temperature;BMP_pressure;BME280_temperature;BME280_humidity;BME280_pressure;Samples;Min_cycle;Max_cycle;Signal;HPM_P1;HPM_P2
2021/07/24 00:01:01;;;;;;;21.98;7.93;;;15.30;99.90;;;;;;5015317;28;20075;-82
2021/07/24 00:03:26;;;;;;;10.30;7.03;;;15.30;99.90;;;;;;5016427;28;20029;-82
2021/07/24 00:05:52;;;;;;;12.82;7.72;;;15.30;99.90;;;;;;5034170;28;20029;-82
2021/07/24 00:08:18;;;;;;;9.50;6.70;;;15.20;99.90;;;;;;5034616;28;20108;-81
2021/07/24 00:10:44;;;;;;;10.77;6.97;;;15.20;99.90;;;;;;5034730;28;20096;-82
2021/07/24 00:13:09;;;;;;;10.50;6.78;;;15.10;99.90;;;;;;5034357;28;20013;-82
2021/07/24 00:15:35;;;;;;;13.15;8.30;;;15.00;99.90;;;;;;5017574;28;20483;-81
2021/07/24 00:18:01;;;;;;;15.00;8.02;;;14.90;99.90;;;;;;5014657;28;20042;-81
2021/07/24 00:20:26;;;;;;;9.82;7.15;;;14.90;99.90;;;;;;5014600;28;20037;-82
2021/07/24 00:22:52;;;;;;;16.30;7.70;;;14.80;99.90;;;;;;5014422;28;20061;-82
2021/07/24 00:25:17;;;;;;;15.45;8.68;;;14.80;99.90;;;;;;5026583;28;20064;-82
2021/07/24 00:27:43;;;;;;;11.85;7.95;;;14.80;99.90;;;;;;5026664;28;20087;-81
2021/07/24 00:30:10;;;;;;;10.23;7.60;;;14.80;99.90;;;;;;5014474;28;20029;-82
2021/07/24 00:32:35;;;;;;;14.82;8.52;;;14.80;99.90;;;;;;4996621;28;20032;-82
2021/07/24 00:35:01;;;;;;;13.07;8.10;;;14.80;99.90;;;;;;5015276;28;20054;-82
2021/07/24 00:37:27;;;;;;;12.10;6.88;;;14.90;99.90;;;;;;4996817;28;20101;-82
2021/07/24 00:39:52;;;;;;;11.38;7.97;;;14.90;99.90;;;;;;4996760;28;20487;-82
2021/07/24 00:42:22;;;;;;;11.95;8.48;;;14.90;99.90;;;;;;5014124;28;20045;-82
2021/07/24 00:44:53;;;;;;;13.10;7.82;;;14.90;99.90;;;;;;4999044;28;20026;-82
2021/07/24 00:47:22;;;;;;;15.10;7.70;;;15.00;99.90;;;;;;5016096;28;20477;-82
2021/07/24 00:49:49;;;;;;;14.90;9.70;;;15.00;99.90;;;;;;5033966;28;20021;-81
2021/07/24 00:52:15;;;;;;;14.68;7.95;;;15.00;99.90;;;;;;5033712;28;20025;-81
2021/07/24 00:54:41;;;;;;;13.30;8.10;;;15.00;99.90;;;;;;5033819;28;20022;-81
2021/07/24 00:57:07;;;;;;;11.93;8.25;;;15.00;99.90;;;;;;5014731;28;20141;-81
2021/07/24 00:59:36;;;;;;;14.50;8.00;;;15.00;99.90;;;;;;5013883;28;20446;-82
2021/07/24 01:02:03;;;;;;;15.40;8.60;;;14.90;99.90;;;;;;5013624;28;20037;-82
2021/07/24 01:04:29;;;;;;;11.55;7.80;;;14.90;99.90;;;;;;5011682;28;20504;-82
2021/07/24 01:06:56;;;;;;;12.13;7.97;;;14.90;99.90;;;;;;5033441;28;20045;-81
2021/07/24 01:09:24;;;;;;;12.75;8.30;;;14.80;99.90;;;;;;5015814;28;20433;-81
2021/07/24 01:11:50;;;;;;;14.27;7.78;;;14.70;99.90;;;;;;5014326;28;20029;-81
2021/07/24 01:14:15;;;;;;;14.40;8.13;;;14.60;99.90;;;;;;5030051;28;20367;-81
2021/07/24 01:16:41;;;;;;;14.40;7.97;;;14.40;99.90;;;;;;5033181;28;20037;-82
2021/07/24 01:19:06;;;;;;;12.38;7.57;;;14.20;99.90;;;;;;5015651;28;20151;-81
2021/07/24 01:21:32;;;;;;;13.38;7.43;;;14.00;99.90;;;;;;5033017;28;20026;-81
2021/07/24 01:23:58;;;;;;;12.82;7.88;;;13.80;99.90;;;;;;5027143;28;20022;-81
2021/07/24 01:26:29;;;;;;;10.50;7.30;;;13.60;99.90;;;;;;4996567;28;20025;-81
2021/07/24 01:28:56;;;;;;;11.15;7.35;;;13.40;99.90;;;;;;5033088;28;20053;-81
2021/07/24 01:31:22;;;;;;;17.17;7.45;;;13.20;99.90;;;;;;5032890;28;20017;-81
2021/07/24 01:33:47;;;;;;;15.02;8.60;;;13.10;99.90;;;;;;5031181;28;20033;-81
2021/07/24 01:36:13;;;;;;;13.02;8.00;;;13.00;99.90;;;;;;4995516;28;20022;-81
2021/07/24 01:38:40;;;;;;;12.80;8.38;;;13.00;99.90;;;;;;5013183;28;20037;-81
2021/07/24 01:41:10;;;;;;;10.60;7.50;;;12.90;99.90;;;;;;5014165;28;20041;-81
2021/07/24 01:43:36;;;;;;;11.07;7.50;;;12.90;99.90;;;;;;4995410;28;20026;-81
2021/07/24 01:46:01;;;;;;;19.17;9.00;;;13.00;99.90;;;;;;5011905;28;20037;-81
2021/07/24 01:53:46;;;;;;;15.98;8.95;;;13.20;99.90;;;;;;5032980;28;20041;-81
2021/07/24 01:56:16;;;;;;;14.38;9.02;;;13.20;99.90;;;;;;4999254;28;20568;-81
2021/07/24 01:58:41;;;;;;;19.40;10.13;;;13.30;99.90;;;;;;4995295;28;20038;-81
2021/07/24 02:01:07;;;;;;;23.02;11.27;;;13.40;99.90;;;;;;5012725;28;20110;-82
2021/07/24 02:03:45;;;;;;;14.10;9.23;;;13.50;99.90;;;;;;5012722;28;20482;-81
2021/07/24 02:06:16;;;;;;;16.75;9.52;;;13.60;99.90;;;;;;5024857;28;20029;-81
2021/07/24 02:08:45;;;;;;;13.05;8.77;;;13.70;99.90;;;;;;5032526;28;20437;-82
2021/07/24 02:11:12;;;;;;;15.75;9.70;;;13.70;99.90;;;;;;5032291;28;20402;-81
2021/07/24 02:13:38;;;;;;;14.95;9.88;;;13.80;99.90;;;;;;5032180;28;20048;-81
2021/07/24 02:16:06;;;;;;;17.27;9.00;;;13.80;99.90;;;;;;5023241;28;20034;-81
2021/07/24 02:18:33;;;;;;;15.65;10.30;;;13.90;99.90;;;;;;4994986;28;20080;-81
2021/07/24 02:21:00;;;;;;;16.00;10.35;;;13.90;99.90;;;;;;5012236;28;20080;-81
2021/07/24 02:23:25;;;;;;;17.58;9.75;;;13.90;99.90;;;;;;5012296;28;20022;-81
2021/07/24 02:25:51;;;;;;;21.90;11.73;;;14.00;99.90;;;;;;4995527;28;20030;-81
2021/07/24 02:28:17;;;;;;;23.10;11.90;;;14.00;99.90;;;;;;5012483;28;20061;-81
2021/07/24 02:30:43;;;;;;;22.85;10.13;;;14.00;99.90;;;;;;5029918;28;20096;-81
2021/07/24 02:33:08;;;;;;;23.42;10.52;;;14.00;99.90;;;;;;5024026;28;20026;-81
2021/07/24 02:35:34;;;;;;;16.50;10.48;;;14.10;99.90;;;;;;5016194;28;20041;-81
2021/07/24 02:38:00;;;;;;;17.27;10.63;;;14.10;99.90;;;;;;5012319;28;20156;-81
2021/07/24 02:40:26;;;;;;;19.90;9.88;;;14.10;99.90;;;;;;5012328;28;20482;-81
2021/07/24 02:42:51;;;;;;;16.50;10.70;;;14.10;99.90;;;;;;5026550;28;20045;-81
2021/07/24 02:45:17;;;;;;;21.70;12.20;;;14.20;99.90;;;;;;5014100;28;20107;-81
2021/07/24 02:47:43;;;;;;;18.65;9.85;;;14.20;99.90;;;;;;5031879;28;20573;-82
2021/07/24 02:50:09;;;;;;;19.52;10.43;;;14.20;99.90;;;;;;5031934;28;20551;-81
2021/07/24 02:52:34;;;;;;;21.88;11.45;;;14.10;99.90;;;;;;5021551;28;20422;-81
2021/07/24 02:55:00;;;;;;;17.27;11.07;;;14.10;99.90;;;;;;5011982;28;20029;-81
2021/07/24 02:57:25;;;;;;;22.63;12.27;;;14.10;99.90;;;;;;5012038;28;20574;-81
2021/07/24 02:59:51;;;;;;;18.33;11.93;;;14.10;99.90;;;;;;5011957;28;20041;-81
2021/07/24 03:02:17;;;;;;;22.98;10.68;;;14.10;99.90;;;;;;5015961;28;20034;-81
2021/07/24 03:04:43;;;;;;;19.08;10.75;;;14.20;99.90;;;;;;5031738;28;20025;-81
2021/07/24 03:07:09;;;;;;;16.75;11.35;;;14.10;99.90;;;;;;5031559;28;20516;-81
2021/07/24 03:09:35;;;;;;;21.10;10.93;;;14.10;99.90;;;;;;5031702;28;20021;-81
2021/07/24 03:12:00;;;;;;;21.83;11.75;;;14.10;99.90;;;;;;5031427;28;20025;-81
2021/07/24 03:14:26;;;;;;;16.60;10.43;;;14.10;99.90;;;;;;5013493;28;20025;-81
2021/07/24 03:16:51;;;;;;;19.77;11.23;;;14.10;99.90;;;;;;5013675;28;20064;-81
2021/07/24 03:19:17;;;;;;;22.50;13.00;;;14.10;99.90;;;;;;5031659;28;20482;-81
2021/07/24 03:21:42;;;;;;;24.77;12.75;;;14.10;99.90;;;;;;5013710;28;20067;-81
2021/07/24 03:24:08;;;;;;;18.50;11.52;;;14.10;99.90;;;;;;5017333;28;20506;-81
2021/07/24 03:26:34;;;;;;;16.80;11.20;;;14.10;99.90;;;;;;5001445;28;20033;-81
2021/07/24 03:28:59;;;;;;;22.92;12.07;;;14.10;99.90;;;;;;5013757;28;20025;-81
2021/07/24 03:31:25;;;;;;;13.90;10.80;;;14.10;99.90;;;;;;5031250;28;20120;-81
2021/07/24 03:33:50;;;;;;;19.38;11.07;;;14.10;99.90;;;;;;5029861;28;20593;-81
2021/07/24 03:36:16;;;;;;;22.63;12.30;;;14.00;99.90;;;;;;5016080;28;20164;-81
2021/07/24 03:38:42;;;;;;;16.25;10.88;;;14.00;99.90;;;;;;5035275;28;20079;-81
2021/07/24 03:41:07;;;;;;;21.63;12.20;;;14.00;99.90;;;;;;5035172;28;20108;-81
2021/07/24 03:43:33;;;;;;;15.10;10.82;;;13.90;99.90;;;;;;5031464;28;20049;-81
2021/07/24 03:45:58;;;;;;;18.73;11.85;;;14.00;99.90;;;;;;5015087;28;20061;-81
2021/07/24 03:48:24;;;;;;;17.25;11.73;;;14.00;99.90;;;;;;5015325;28;20034;-81
2021/07/24 03:50:50;;;;;;;19.08;12.57;;;14.00;99.90;;;;;;4997616;28;20044;-81
2021/07/24 03:53:15;;;;;;;22.02;13.00;;;14.00;99.90;;;;;;5015044;28;20108;-81
2021/07/24 03:55:41;;;;;;;20.88;12.23;;;14.00;99.90;;;;;;5032698;28;20497;-81
2021/07/24 03:58:06;;;;;;;22.85;12.52;;;14.00;99.90;;;;;;5017179;28;20018;-81
2021/07/24 04:00:41;;;;;;;23.35;12.25;;;14.00;99.90;;;;;;5034796;28;20075;-81
2021/07/24 04:03:08;;;;;;;17.80;12.15;;;14.00;99.90;;;;;;5034636;28;20037;-81
2021/07/24 04:05:40;;;;;;;19.83;11.63;;;13.90;99.90;;;;;;5020322;28;20398;-81
2021/07/24 04:08:06;;;;;;;24.08;13.48;;;13.90;99.90;;;;;;5015103;28;20018;-81
2021/07/24 04:10:33;;;;;;;18.90;12.48;;;13.80;99.90;;;;;;5014909;28;20033;-81
2021/07/24 04:12:59;;;;;;;20.23;12.27;;;13.60;99.90;;;;;;5014599;28;20399;-81
2021/07/24 04:15:24;;;;;;;17.42;11.68;;;13.50;99.90;;;;;;5024478;28;20104;-81
2021/07/24 04:17:52;;;;;;;21.58;11.80;;;13.40;99.90;;;;;;5016699;28;20051;-81
2021/07/24 04:20:20;;;;;;;19.27;11.13;;;13.30;99.90;;;;;;5016724;28;20485;-81
2021/07/24 04:22:46;;;;;;;16.42;11.35;;;13.30;99.90;;;;;;5034265;28;20030;-81
2021/07/24 04:25:12;;;;;;;18.50;12.60;;;13.20;99.90;;;;;;5030877;28;20091;-81
2021/07/24 04:27:39;;;;;;;19.58;12.05;;;13.20;99.90;;;;;;5034325;28;20091;-81
2021/07/24 04:30:06;;;;;;;19.63;12.38;;;13.10;99.90;;;;;;5025891;28;20022;-81
2021/07/24 04:32:31;;;;;;;26.65;13.57;;;13.10;99.90;;;;;;5014327;28;20018;-81
2021/07/24 04:34:57;;;;;;;28.23;14.27;;;13.10;99.90;;;;;;4997162;28;20022;-81
2021/07/24 04:37:22;;;;;;;28.27;14.50;;;13.10;99.90;;;;;;5034135;28;20033;-81
2021/07/24 04:39:48;;;;;;;18.70;13.00;;;13.10;99.90;;;;;;5034171;28;20026;-81
2021/07/24 04:42:13;;;;;;;24.60;13.30;;;13.10;99.90;;;;;;5033796;28;20750;-81
2021/07/24 04:44:39;;;;;;;24.23;13.73;;;13.10;99.90;;;;;;5034102;28;20497;-81
2021/07/24 04:47:04;;;;;;;27.33;14.32;;;13.10;99.90;;;;;;5017512;28;20036;-81
2021/07/24 04:49:31;;;;;;;24.05;13.75;;;13.20;99.90;;;;;;4996668;28;20073;-81
2021/07/24 04:52:01;;;;;;;25.52;13.18;;;13.20;99.90;;;;;;4996371;28;20437;-81
2021/07/24 04:54:28;;;;;;;27.75;13.57;;;13.20;99.90;;;;;;5014053;28;20185;-81
2021/07/24 04:56:55;;;;;;;19.08;12.85;;;13.20;99.90;;;;;;5024456;28;20025;-81
2021/07/24 04:59:21;;;;;;;25.35;14.38;;;13.30;99.90;;;;;;5033822;28;20110;-81
2021/07/24 05:01:47;;;;;;;18.80;12.45;;;13.30;99.90;;;;;;5033576;28;20542;-80
2021/07/24 05:04:13;;;;;;;22.88;14.20;;;13.40;99.90;;;;;;5033717;28;20030;-81
2021/07/24 05:06:38;;;;;;;30.15;17.10;;;13.50;99.90;;;;;;5027516;28;20077;-80
2021/07/24 05:09:08;;;;;;;25.60;16.50;;;13.50;99.90;;;;;;5006054;28;20029;-80
2021/07/24 05:11:34;;;;;;;26.40;16.55;;;13.60;99.90;;;;;;5030428;28;20029;-80
2021/07/24 05:14:00;;;;;;;36.92;19.45;;;13.80;99.90;;;;;;5033954;28;20082;-80
2021/07/24 05:16:25;;;;;;;31.27;18.10;;;13.90;99.90;;;;;;5019182;28;20057;-80
2021/07/24 05:18:51;;;;;;;30.17;17.65;;;14.00;99.90;;;;;;5025374;28;20060;-80
2021/07/24 05:21:18;;;;;;;31.55;16.85;;;14.10;99.90;;;;;;5033695;28;20158;-80
2021/07/24 05:23:44;;;;;;;30.33;16.77;;;14.20;99.90;;;;;;5038803;28;20028;-80
2021/07/24 05:26:14;;;;;;;36.90;21.08;;;14.40;99.90;;;;;;5044327;28;20476;-80
2021/07/24 05:28:39;;;;;;;31.33;18.02;;;14.50;99.90;;;;;;5031696;28;20393;-80
2021/07/24 05:31:05;;;;;;;29.88;17.75;;;14.60;99.90;;;;;;5021270;28;20029;-82
2021/07/24 05:33:30;;;;;;;32.35;17.83;;;14.80;99.90;;;;;;5032042;28;20071;-83
2021/07/24 05:35:56;;;;;;;29.30;17.50;;;14.90;99.90;;;;;;5046001;28;20056;-80
2021/07/24 05:38:21;;;;;;;29.52;18.95;;;15.00;99.90;;;;;;5037978;28;20108;-81
2021/07/24 05:40:47;;;;;;;27.15;16.30;;;15.20;99.90;;;;;;5034897;28;20034;-82
2021/07/24 05:43:12;;;;;;;29.92;17.13;;;15.30;99.90;;;;;;5045421;28;20052;-80
2021/07/24 05:45:38;;;;;;;23.90;14.85;;;15.50;99.90;;;;;;5019345;28;20052;-80
2021/07/24 05:48:03;;;;;;;19.23;13.38;;;15.60;99.90;;;;;;5025994;28;20056;-82
2021/07/24 05:50:29;;;;;;;31.27;16.08;;;15.80;99.90;;;;;;5029030;28;20577;-82
2021/07/24 05:52:54;;;;;;;28.95;17.50;;;15.90;99.90;;;;;;5038543;28;20429;-81
2021/07/24 05:55:20;;;;;;;28.27;15.40;;;16.10;99.90;;;;;;5048041;28;20017;-81
2021/07/24 05:57:45;;;;;;;24.92;16.13;;;16.30;99.90;;;;;;5013671;28;20108;-83
2021/07/24 06:00:11;;;;;;;22.35;12.90;;;16.20;99.90;;;;;;5018713;28;20025;-80
2021/07/24 06:02:37;;;;;;;25.20;14.00;;;16.50;99.90;;;;;;5005359;28;20028;-81
2021/07/24 06:05:03;;;;;;;17.77;13.07;;;16.70;99.90;;;;;;5030558;28;20053;-82
2021/07/24 06:07:30;;;;;;;19.08;11.38;;;16.90;99.90;;;;;;5037884;28;20056;-81
2021/07/24 06:09:56;;;;;;;17.25;11.80;;;17.10;99.90;;;;;;5027791;28;20032;-82
2021/07/24 06:12:21;;;;;;;18.15;12.07;;;17.20;99.90;;;;;;5018909;28;20024;-83
2021/07/24 06:14:47;;;;;;;18.98;11.07;;;17.40;99.90;;;;;;5032529;28;20025;-82
2021/07/24 06:17:12;;;;;;;15.07;9.80;;;17.50;99.90;;;;;;5017354;28;20037;-82
2021/07/24 06:19:38;;;;;;;15.98;10.05;;;17.70;99.90;;;;;;5036541;28;20076;-81
2021/07/24 06:22:04;;;;;;;14.75;8.70;;;17.80;99.90;;;;;;5031498;28;20029;-81
2021/07/24 06:24:29;;;;;;;12.18;8.57;;;17.90;99.90;;;;;;5027622;28;20025;-81
2021/07/24 06:26:55;;;;;;;10.82;8.32;;;18.10;99.90;;;;;;5019692;28;20030;-81
2021/07/24 06:29:21;;;;;;;16.83;8.32;;;18.30;99.90;;;;;;5030227;28;20025;-82
2021/07/24 06:31:46;;;;;;;14.85;8.02;;;18.40;99.90;;;;;;5012008;28;20096;-81
2021/07/24 06:34:12;;;;;;;13.35;8.45;;;18.50;99.90;;;;;;5010986;28;20497;-81
2021/07/24 06:36:39;;;;;;;15.00;6.50;;;18.50;99.90;;;;;;5012123;28;20053;-81
2021/07/24 06:39:05;;;;;;;13.80;7.80;;;18.90;99.90;;;;;;5010839;28;20017;-82
2021/07/24 06:41:33;;;;;;;12.40;8.07;;;18.90;99.90;;;;;;5013208;28;20040;-82
2021/07/24 06:43:58;;;;;;;10.13;6.70;;;19.10;99.90;;;;;;5031801;28;20021;-82
2021/07/24 06:46:24;;;;;;;12.32;6.93;;;19.20;99.90;;;;;;5031903;28;20367;-82
2021/07/24 06:48:49;;;;;;;15.90;6.68;;;19.30;99.90;;;;;;5031745;28;20037;-81
2021/07/24 06:51:15;;;;;;;12.23;7.30;;;19.50;99.90;;;;;;5030822;28;20033;-81
2021/07/24 06:53:41;;;;;;;17.30;6.63;;;19.50;99.90;;;;;;5013997;28;20031;-81
2021/07/24 06:56:06;;;;;;;10.20;6.45;;;19.70;99.90;;;;;;5031531;28;20029;-82
2021/07/24 06:58:33;;;;;;;9.25;6.18;;;19.80;99.90;;;;;;5031787;28;20032;-81
2021/07/24 07:00:59;;;;;;;12.88;6.45;;;19.90;99.90;;;;;;5031388;28;20028;-82
2021/07/24 07:03:24;;;;;;;14.40;6.18;;;20.00;99.90;;;;;;5013290;28;20029;-81
2021/07/24 07:05:50;;;;;;;15.57;5.63;;;20.10;99.90;;;;;;5013786;28;20021;-81
2021/07/24 07:08:16;;;;;;;10.38;6.53;;;20.20;99.90;;;;;;5031524;28;20060;-81
2021/07/24 07:10:42;;;;;;;13.82;6.97;;;20.30;99.90;;;;;;5015513;28;20053;-81
2021/07/24 07:13:07;;;;;;;10.00;6.00;;;20.40;99.90;;;;;;5020672;28;20030;-81
2021/07/24 07:15:33;;;;;;;12.90;7.03;;;20.60;99.90;;;;;;5028322;28;20038;-82
2021/07/24 07:17:59;;;;;;;16.73;6.82;;;20.80;99.90;;;;;;5016312;28;20083;-81
2021/07/24 07:20:24;;;;;;;11.25;6.68;;;20.80;99.90;;;;;;5012883;28;20030;-80
2021/07/24 07:22:50;;;;;;;11.57;7.13;;;21.00;99.90;;;;;;5017625;28;20501;-81
2021/07/24 07:25:16;;;;;;;11.98;7.50;;;20.90;99.90;;;;;;5035156;28;20029;-85
2021/07/24 07:27:43;;;;;;;12.13;6.63;;;21.20;99.90;;;;;;5035464;28;20026;-83
2021/07/24 07:30:10;;;;;;;13.38;6.25;;;21.30;99.90;;;;;;5007137;28;20076;-84
2021/07/24 07:32:36;;;;;;;11.48;6.95;;;21.50;99.90;;;;;;5015367;28;20480;-89
2021/07/24 07:35:02;;;;;;;10.60;6.88;;;21.80;99.90;;;;;;4997658;28;20033;-84
2021/07/24 07:37:27;;;;;;;12.77;6.45;;;22.00;99.90;;;;;;5030827;28;20033;-83
2021/07/24 07:39:53;;;;;;;15.20;6.85;;;22.00;99.90;;;;;;5035283;28;20029;-82
2021/07/24 07:42:19;;;;;;;13.25;5.85;;;22.30;99.90;;;;;;5034904;28;20040;-86
2021/07/24 07:44:44;;;;;;;13.52;6.40;;;22.30;99.90;;;;;;5017455;28;20026;-85
2021/07/24 07:47:10;;;;;;;12.57;5.88;;;22.50;99.90;;;;;;5032995;28;20481;-84
2021/07/24 07:49:36;;;;;;;17.00;5.95;;;22.40;99.90;;;;;;5021221;28;20014;-83
2021/07/24 07:52:03;;;;;;;11.35;6.88;;;22.40;99.90;;;;;;5021526;28;20083;-83
2021/07/24 07:54:30;;;;;;;19.63;5.90;;;22.50;99.90;;;;;;5011760;28;20022;-83
2021/07/24 07:56:57;;;;;;;9.77;6.05;;;22.80;99.90;;;;;;5034871;28;20082;-84
2021/07/24 07:59:23;;;;;;;11.68;6.30;;;22.80;99.90;;;;;;5034884;28;20030;-84
2021/07/24 08:01:49;;;;;;;12.05;6.45;;;23.00;99.90;;;;;;5034767;28;20500;-83
2021/07/24 08:04:14;;;;;;;12.15;5.70;;;23.10;99.90;;;;;;5033960;28;20478;-83
2021/07/24 08:06:40;;;;;;;14.48;7.40;;;23.10;99.90;;;;;;5014693;28;20486;-83
2021/07/24 08:09:05;;;;;;;13.27;6.25;;;23.10;99.90;;;;;;5013661;28;20021;-83
2021/07/24 08:11:31;;;;;;;12.13;6.40;;;23.20;99.90;;;;;;5034050;28;20485;-84
2021/07/24 08:13:56;;;;;;;19.73;5.63;;;23.20;99.90;;;;;;5034633;28;20036;-84
2021/07/24 08:16:22;;;;;;;12.35;6.22;;;23.40;99.90;;;;;;5034336;28;20025;-85
2021/07/24 08:18:48;;;;;;;12.30;6.07;;;23.60;99.90;;;;;;5034324;28;20378;-85
2021/07/24 08:21:13;;;;;;;11.95;5.70;;;23.70;99.90;;;;;;5033205;28;20055;-83
2021/07/24 08:23:39;;;;;;;12.07;5.38;;;23.80;99.90;;;;;;5034460;28;20388;-86
2021/07/24 08:26:05;;;;;;;11.60;6.00;;;23.90;99.90;;;;;;5034157;28;20040;-90
2021/07/24 08:28:30;;;;;;;9.60;5.38;;;23.80;99.90;;;;;;5034334;28;20029;-82
2021/07/24 08:30:56;;;;;;;9.75;5.25;;;23.80;99.90;;;;;;5033817;28;20026;-83
2021/07/24 08:33:22;;;;;;;16.27;6.32;;;24.00;99.90;;;;;;5033986;28;20029;-82
2021/07/24 08:35:48;;;;;;;10.98;5.40;;;24.20;99.90;;;;;;5033986;28;20071;-83
2021/07/24 08:38:13;;;;;;;15.77;5.80;;;24.20;99.90;;;;;;5024780;28;20034;-83
2021/07/24 08:40:39;;;;;;;12.40;5.28;;;24.30;99.90;;;;;;5033021;28;20052;-83
2021/07/24 08:43:06;;;;;;;10.10;5.50;;;24.40;99.90;;;;;;5033537;28;20097;-82
2021/07/24 08:45:33;;;;;;;8.65;5.40;;;24.60;99.90;;;;;;5016060;28;20037;-81
2021/07/24 08:48:00;;;;;;;9.68;5.03;;;24.80;99.90;;;;;;5016122;28;20017;-81
2021/07/24 08:50:26;;;;;;;10.98;5.45;;;24.90;99.90;;;;;;5033985;28;20071;-82
2021/07/24 08:52:57;;;;;;;8.95;5.88;;;24.80;99.90;;;;;;5015414;28;20087;-83
2021/07/24 08:55:24;;;;;;;10.85;5.50;;;24.80;99.90;;;;;;5033681;28;20033;-84
2021/07/24 08:57:56;;;;;;;9.93;5.25;;;25.00;99.90;;;;;;5033813;28;20022;-81
2021/07/24 09:00:23;;;;;;;12.18;5.45;;;25.30;99.90;;;;;;5016057;28;20436;-82
2021/07/24 09:02:52;;;;;;;10.32;5.05;;;25.30;99.90;;;;;;5015407;28;20025;-83
2021/07/24 09:05:18;;;;;;;10.35;5.05;;;25.50;99.90;;;;;;5029292;28;20112;-83
2021/07/24 09:07:49;;;;;;;11.13;5.20;;;25.80;99.90;;;;;;5015435;28;20424;-83
2021/07/24 09:10:16;;;;;;;14.77;5.32;;;25.90;99.90;;;;;;5033360;28;20075;-84
2021/07/24 09:12:44;;;;;;;10.77;5.05;;;25.90;99.90;;;;;;5013755;28;20401;-83
2021/07/24 09:15:12;;;;;;;10.50;5.63;;;26.00;99.90;;;;;;5033397;28;20512;-83
2021/07/24 09:17:38;;;;;;;10.63;5.15;;;25.80;99.90;;;;;;5033336;28;20569;-83
2021/07/24 09:20:05;;;;;;;8.88;5.32;;;25.70;99.90;;;;;;5033273;28;20084;-84
2021/07/24 09:22:38;;;;;;;16.15;5.70;;;25.50;99.90;;;;;;5032613;28;20025;-83
2021/07/24 09:25:22;;;;;;;8.55;5.43;;;25.20;99.90;;;;;;5033169;28;20045;-86
2021/07/24 09:27:53;;;;;;;11.02;5.32;;;25.30;99.90;;;;;;5033171;28;20017;-84
2021/07/24 09:30:24;;;;;;;11.18;5.68;;;25.50;99.90;;;;;;5033192;28;20025;-83
2021/07/24 09:33:08;;;;;;;10.52;5.20;;;25.40;99.90;;;;;;5014582;28;20116;-81
2021/07/24 09:35:38;;;;;;;17.73;5.85;;;25.10;99.90;;;;;;5013179;28;20026;-84
2021/07/24 09:38:27;;;;;;;14.48;5.60;;;25.50;99.90;;;;;;5024332;28;20140;-84
2021/07/24 09:40:54;;;;;;;11.65;5.28;;;26.00;99.90;;;;;;5021029;28;20037;-83
2021/07/24 09:43:27;;;;;;;12.27;5.65;;;26.20;99.90;;;;;;5037998;28;20512;-84
2021/07/24 09:46:07;;;;;;;13.20;5.60;;;26.00;99.90;;;;;;5038226;28;20037;-82
2021/07/24 09:48:32;;;;;;;11.60;5.43;;;25.30;99.90;;;;;;5039075;28;20052;-84
2021/07/24 09:50:58;;;;;;;10.55;5.30;;;25.30;99.90;;;;;;5030167;28;20473;-83
2021/07/24 09:53:43;;;;;;;11.90;5.10;;;25.10;99.90;;;;;;5038145;28;20454;-84
2021/07/24 09:56:19;;;;;;;11.25;5.38;;;25.00;99.90;;;;;;5028595;28;20048;-85
2021/07/24 09:58:46;;;;;;;19.48;5.85;;;25.70;99.90;;;;;;5027599;28;20792;-82
2021/07/24 10:01:18;;;;;;;11.23;6.30;;;26.00;99.90;;;;;;5037893;28;20033;-84
2021/07/24 10:03:47;;;;;;;14.52;6.63;;;25.90;99.90;;;;;;5037472;28;20033;-84
2021/07/24 10:06:14;;;;;;;13.65;6.35;;;25.70;99.90;;;;;;5030878;28;20026;-84
2021/07/24 10:08:47;;;;;;;13.25;6.43;;;25.50;99.90;;;;;;5038434;28;20072;-83
2021/07/24 10:11:12;;;;;;;13.67;6.47;;;25.20;99.90;;;;;;5033290;28;20034;-82
2021/07/24 10:13:39;;;;;;;15.40;5.90;;;25.50;99.90;;;;;;5040166;28;20051;-84
2021/07/24 10:16:05;;;;;;;11.15;5.28;;;25.80;99.90;;;;;;5033956;28;20036;-81
2021/07/24 10:18:32;;;;;;;11.95;5.18;;;25.90;99.90;;;;;;5020062;28;20041;-80
2021/07/24 10:20:57;;;;;;;8.98;5.00;;;26.20;99.90;;;;;;5041197;28;20122;-81
2021/07/24 10:23:26;;;;;;;10.70;5.57;;;26.10;99.90;;;;;;5046234;28;20638;-82
2021/07/24 10:26:23;;;;;;;15.40;5.72;;;26.00;99.90;;;;;;5037443;28;20037;-81
2021/07/24 10:28:58;;;;;;;19.25;6.57;;;25.90;99.90;;;;;;5005970;28;20029;-82
2021/07/24 10:31:48;;;;;;;13.45;6.47;;;26.40;99.90;;;;;;5027778;28;20041;-82
2021/07/24 10:34:19;;;;;;;11.77;6.55;;;27.00;99.90;;;;;;5011381;28;20108;-82
2021/07/24 10:36:45;;;;;;;16.25;6.00;;;27.30;99.90;;;;;;5038079;28;20478;-84
2021/07/24 10:39:16;;;;;;;12.75;5.75;;;27.50;99.90;;;;;;5040444;28;20040;-84
2021/07/24 10:41:52;;;;;;;16.35;7.00;;;27.60;99.90;;;;;;5037186;28;20661;-83
2021/07/24 10:44:30;;;;;;;18.52;7.68;;;27.40;99.90;;;;;;5039598;28;20048;-85
2021/07/24 10:46:58;;;;;;;14.43;6.30;;;27.60;99.90;;;;;;5037989;28;20052;-84
2021/07/24 10:49:32;;;;;;;11.40;5.53;;;27.90;99.90;;;;;;5036632;28;20025;-87
2021/07/24 10:51:59;;;;;;;15.85;6.03;;;28.30;99.90;;;;;;5046349;28;20052;-88
2021/07/24 10:54:27;;;;;;;12.45;5.15;;;28.50;99.90;;;;;;5037261;28;20021;-86
2021/07/24 10:56:52;;;;;;;12.70;4.80;;;28.90;99.90;;;;;;5029076;28;20401;-84
2021/07/24 10:59:25;;;;;;;6.28;3.88;;;29.30;99.90;;;;;;5032561;28;20040;-87
2021/07/24 11:01:53;;;;;;;12.52;5.05;;;29.60;99.90;;;;;;5041232;28;20040;-87
2021/07/24 11:04:36;;;;;;;12.65;5.53;;;29.90;99.90;;;;;;5032249;28;20025;-83
2021/07/24 11:07:21;;;;;;;12.93;5.68;;;29.50;99.90;;;;;;5038542;28;20417;-83
2021/07/24 11:10:04;;;;;;;9.05;5.00;;;28.60;99.90;;;;;;5046287;28;20020;-85
2021/07/24 11:12:37;;;;;;;7.90;4.65;;;28.30;99.90;;;;;;5037219;28;20029;-83
2021/07/24 11:15:04;;;;;;;13.30;4.95;;;28.40;99.90;;;;;;5020195;28;20077;-81
2021/07/24 11:17:30;;;;;;;20.48;5.15;;;28.20;99.90;;;;;;5031906;28;20091;-85
2021/07/24 11:20:03;;;;;;;10.13;4.70;;;28.50;99.90;;;;;;5029237;28;20486;-84
2021/07/24 11:22:29;;;;;;;16.20;5.35;;;28.10;99.90;;;;;;5036307;28;20032;-86
2021/07/24 11:24:58;;;;;;;12.10;5.40;;;28.00;99.90;;;;;;5036523;28;20052;-84
2021/07/24 11:27:26;;;;;;;9.07;4.95;;;28.30;99.90;;;;;;5043742;28;20047;-86
2021/07/24 11:30:08;;;;;;;25.05;5.95;;;28.50;99.90;;;;;;5022530;28;20033;-85
2021/07/24 11:32:34;;;;;;;13.32;5.43;;;28.10;99.90;;;;;;5033020;28;20034;-83
2021/07/24 11:35:05;;;;;;;9.50;4.43;;;28.00;99.90;;;;;;5026988;28;20025;-83
2021/07/24 11:37:39;;;;;;;11.35;4.65;;;28.00;99.90;;;;;;5027726;28;20021;-85
2021/07/24 11:40:13;;;;;;;11.68;4.90;;;27.80;99.90;;;;;;5027682;28;20051;-84
2021/07/24 11:42:40;;;;;;;7.03;4.05;;;27.70;99.90;;;;;;5041650;28;20390;-83
2021/07/24 11:45:06;;;;;;;7.47;4.13;;;28.10;99.90;;;;;;5037035;28;20033;-82
2021/07/24 11:47:31;;;;;;;7.50;4.00;;;28.30;99.90;;;;;;5032394;28;20493;-82
2021/07/24 11:50:16;;;;;;;27.23;5.00;;;28.10;99.90;;;;;;5038096;28;20034;-83
2021/07/24 11:52:42;;;;;;;11.80;3.80;;;28.40;99.90;;;;;;5043849;28;20017;-86
2021/07/24 11:55:09;;;;;;;6.00;3.75;;;28.90;99.90;;;;;;5045642;28;20396;-82
2021/07/24 11:57:35;;;;;;;16.45;4.50;;;28.80;99.90;;;;;;5022450;28;20044;-84
2021/07/24 12:00:02;;;;;;;11.45;3.83;;;28.40;99.90;;;;;;5039024;28;20054;-84
2021/07/24 12:02:27;;;;;;;11.40;4.18;;;28.40;99.90;;;;;;5042955;28;20038;-83
2021/07/24 12:04:53;;;;;;;6.43;4.25;;;28.90;99.90;;;;;;5019947;28;20071;-84
2021/07/24 12:07:22;;;;;;;9.82;3.88;;;28.70;99.90;;;;;;5036355;28;20486;-81
2021/07/24 12:09:48;;;;;;;11.95;3.80;;;28.20;99.90;;;;;;5016402;28;20489;-85
2021/07/24 12:12:14;;;;;;;9.15;3.55;;;27.80;99.90;;;;;;5034398;28;20034;-82
2021/07/24 12:14:39;;;;;;;8.32;4.32;;;28.00;99.90;;;;;;5034610;28;20033;-82
2021/07/24 12:17:12;;;;;;;7.57;4.53;;;29.00;99.90;;;;;;5034399;28;20043;-81
2021/07/24 12:19:40;;;;;;;6.95;4.20;;;29.90;99.90;;;;;;5034258;28;20030;-83
2021/07/24 12:22:14;;;;;;;14.35;4.18;;;30.60;99.90;;;;;;5033981;28;20064;-81
2021/07/24 12:24:41;;;;;;;15.25;3.50;;;31.40;99.90;;;;;;5016617;28;20080;-83
2021/07/24 12:27:26;;;;;;;15.68;4.25;;;32.00;99.90;;;;;;5016537;28;20025;-83
2021/07/24 12:30:00;;;;;;;10.38;3.97;;;31.70;99.90;;;;;;5033824;28;20393;-83
2021/07/24 12:32:40;;;;;;;16.05;3.60;;;31.20;99.90;;;;;;5016421;28;20040;-82
2021/07/24 12:35:21;;;;;;;10.00;4.20;;;31.30;99.90;;;;;;5016285;28;20112;-85
2021/07/24 12:37:46;;;;;;;6.90;3.80;;;31.30;99.90;;;;;;5034138;28;20018;-80
2021/07/24 12:40:19;;;;;;;10.50;4.80;;;30.80;99.90;;;;;;5033888;28;20052;-81
2021/07/24 12:42:46;;;;;;;13.85;4.20;;;29.90;99.90;;;;;;5015583;28;20057;-82